sensor_id;sensor_type;location;lat;lon;timestamp;pressure;altitude;pressure_sealevel;temperature;humidity
79366;BME280;68833;53.160;17.920;2023-04-24T00:01:40;99790.72;;;13.90;70.59
79366;BME280;68833;53.160;17.920;2023-04-24T00:04:13;99788.56;;;13.86;70.21
79366;BME280;68833;53.160;17.920;2023-04-24T00:06:43;99790.67;;;13.87;70.44
79366;BME280;68833;53.160;17.920;2023-04-24T00:09:21;99785.58;;;13.86;70.65
79366;BME280;68833;53.160;17.920;2023-04-24T00:11:51;99785.23;;;13.86;70.69
79366;BME280;68833;53.160;17.920;2023-04-24T00:14:18;99778.02;;;13.85;70.87
79366;BME280;68833;53.160;17.920;2023-04-24T00:16:47;99775.58;;;13.84;70.57
79366;BME280;68833;53.160;17.920;2023-04-24T00:19:15;99770.47;;;13.84;70.62
79366;BME280;68833;53.160;17.920;2023-04-24T00:21:43;99767.81;;;13.84;70.66
79366;BME280;68833;53.160;17.920;2023-04-24T00:24:14;99766.75;;;13.84;70.80
79366;BME280;68833;53.160;17.920;2023-04-24T00:26:43;99764.16;;;13.83;70.93
79366;BME280;68833;53.160;17.920;2023-04-24T00:29:20;99766.84;;;13.81;70.92
79366;BME280;68833;53.160;17.920;2023-04-24T00:31:48;99764.69;;;13.78;71.13
79366;BME280;68833;53.160;17.920;2023-04-24T00:34:17;99763.16;;;13.76;70.96
79366;BME280;68833;53.160;17.920;2023-04-24T00:36:46;99761.48;;;13.74;71.11
79366;BME280;68833;53.160;17.920;2023-04-24T00:39:16;99758.13;;;13.69;71.18
79366;BME280;68833;53.160;17.920;2023-04-24T00:41:44;99753.73;;;13.69;71.42
79366;BME280;68833;53.160;17.920;2023-04-24T00:44:18;99748.45;;;13.69;71.16
79366;BME280;68833;53.160;17.920;2023-04-24T00:46:58;99743.73;;;13.67;71.34
79366;BME280;68833;53.160;17.920;2023-04-24T00:49:29;99742.94;;;13.64;71.40
79366;BME280;68833;53.160;17.920;2023-04-24T00:51:57;99752.05;;;13.62;71.32
79366;BME280;68833;53.160;17.920;2023-04-24T00:54:27;99749.86;;;13.59;71.59
79366;BME280;68833;53.160;17.920;2023-04-24T00:56:59;99748.87;;;13.57;71.48
79366;BME280;68833;53.160;17.920;2023-04-24T00:59:30;99745.00;;;13.57;71.57
79366;BME280;68833;53.160;17.920;2023-04-24T01:01:58;99743.08;;;13.56;71.89
79366;BME280;68833;53.160;17.920;2023-04-24T01:04:29;99742.25;;;13.55;71.78
79366;BME280;68833;53.160;17.920;2023-04-24T01:06:56;99742.70;;;13.52;71.65
79366;BME280;68833;53.160;17.920;2023-04-24T01:09:24;99741.70;;;13.51;71.73
79366;BME280;68833;53.160;17.920;2023-04-24T01:11:54;99738.88;;;13.50;71.70
79366;BME280;68833;53.160;17.920;2023-04-24T01:14:23;99736.07;;;13.50;71.82
79366;BME280;68833;53.160;17.920;2023-04-24T01:16:51;99738.38;;;13.50;71.61
79366;BME280;68833;53.160;17.920;2023-04-24T01:19:19;99730.63;;;13.49;71.58
79366;BME280;68833;53.160;17.920;2023-04-24T01:21:47;99727.84;;;13.48;71.59
79366;BME280;68833;53.160;17.920;2023-04-24T01:24:20;99723.64;;;13.47;71.68
79366;BME280;68833;53.160;17.920;2023-04-24T01:26:53;99724.13;;;13.44;71.87
79366;BME280;68833;53.160;17.920;2023-04-24T01:29:20;99721.50;;;13.43;71.97
79366;BME280;68833;53.160;17.920;2023-04-24T01:31:48;99720.48;;;13.42;72.15
79366;BME280;68833;53.160;17.920;2023-04-24T01:34:16;99721.08;;;13.40;72.33
79366;BME280;68833;53.160;17.920;2023-04-24T01:36:46;99722.21;;;13.38;72.43
79366;BME280;68833;53.160;17.920;2023-04-24T01:39:38;99720.88;;;13.36;72.55
79366;BME280;68833;53.160;17.920;2023-04-24T01:42:19;99722.77;;;13.32;72.54
79366;BME280;68833;53.160;17.920;2023-04-24T01:44:56;99726.89;;;13.30;72.76
79366;BME280;68833;53.160;17.920;2023-04-24T01:47:26;99718.94;;;13.30;72.74
79366;BME280;68833;53.160;17.920;2023-04-24T01:49:59;99720.23;;;13.28;72.73
79366;BME280;68833;53.160;17.920;2023-04-24T01:52:34;99712.83;;;13.28;72.60
79366;BME280;68833;53.160;17.920;2023-04-24T01:55:08;99712.69;;;13.27;73.03
79366;BME280;68833;53.160;17.920;2023-04-24T01:57:37;99712.27;;;13.24;72.96
79366;BME280;68833;53.160;17.920;2023-04-24T02:00:11;99720.02;;;13.24;73.08
79366;BME280;68833;53.160;17.920;2023-04-24T02:02:45;99713.00;;;13.24;72.97
79366;BME280;68833;53.160;17.920;2023-04-24T02:05:17;99717.98;;;13.23;73.12
79366;BME280;68833;53.160;17.920;2023-04-24T02:07:48;99717.16;;;13.20;73.33
79366;BME280;68833;53.160;17.920;2023-04-24T02:10:21;99713.05;;;13.18;73.37
79366;BME280;68833;53.160;17.920;2023-04-24T02:12:56;99708.89;;;13.15;73.15
79366;BME280;68833;53.160;17.920;2023-04-24T02:15:29;99710.98;;;13.15;73.19
79366;BME280;68833;53.160;17.920;2023-04-24T02:18:20;99709.41;;;13.15;73.29
79366;BME280;68833;53.160;17.920;2023-04-24T02:20:49;99702.23;;;13.14;73.41
79366;BME280;68833;53.160;17.920;2023-04-24T02:23:19;99700.28;;;13.14;73.44
79366;BME280;68833;53.160;17.920;2023-04-24T02:25:51;99695.23;;;13.12;73.64
79366;BME280;68833;53.160;17.920;2023-04-24T02:28:23;99692.80;;;13.11;73.44
79366;BME280;68833;53.160;17.920;2023-04-24T02:30:52;99689.40;;;13.12;73.54
79366;BME280;68833;53.160;17.920;2023-04-24T02:33:22;99689.36;;;13.14;73.43
79366;BME280;68833;53.160;17.920;2023-04-24T02:35:52;99689.38;;;13.13;73.54
79366;BME280;68833;53.160;17.920;2023-04-24T02:38:20;99690.26;;;13.13;73.47
79366;BME280;68833;53.160;17.920;2023-04-24T02:40:53;99685.48;;;13.14;73.31
79366;BME280;68833;53.160;17.920;2023-04-24T02:43:20;99683.53;;;13.14;73.44
79366;BME280;68833;53.160;17.920;2023-04-24T02:45:48;99678.60;;;13.14;73.42
79366;BME280;68833;53.160;17.920;2023-04-24T02:48:19;99666.56;;;13.16;73.53
79366;BME280;68833;53.160;17.920;2023-04-24T02:50:50;99664.93;;;13.16;73.56
79366;BME280;68833;53.160;17.920;2023-04-24T02:53:18;99666.34;;;13.17;73.68
79366;BME280;68833;53.160;17.920;2023-04-24T02:55:46;99670.12;;;13.14;73.70
79366;BME280;68833;53.160;17.920;2023-04-24T02:58:32;99675.46;;;13.13;73.87
79366;BME280;68833;53.160;17.920;2023-04-24T03:01:02;99675.14;;;13.12;73.82
79366;BME280;68833;53.160;17.920;2023-04-24T03:03:34;99673.54;;;13.12;73.87
79366;BME280;68833;53.160;17.920;2023-04-24T03:06:01;99676.67;;;13.14;73.65
79366;BME280;68833;53.160;17.920;2023-04-24T03:08:28;99680.73;;;13.13;73.80
79366;BME280;68833;53.160;17.920;2023-04-24T03:10:55;99680.89;;;13.14;73.83
79366;BME280;68833;53.160;17.920;2023-04-24T03:13:22;99684.58;;;13.14;73.67
79366;BME280;68833;53.160;17.920;2023-04-24T03:15:50;99682.64;;;13.14;73.76
79366;BME280;68833;53.160;17.920;2023-04-24T03:18:17;99686.62;;;13.17;73.69
79366;BME280;68833;53.160;17.920;2023-04-24T03:20:47;99688.31;;;13.19;73.68
79366;BME280;68833;53.160;17.920;2023-04-24T03:23:15;99690.63;;;13.18;74.04
79366;BME280;68833;53.160;17.920;2023-04-24T03:25:42;99691.55;;;13.16;74.13
79366;BME280;68833;53.160;17.920;2023-04-24T03:28:10;99687.91;;;13.15;74.16
79366;BME280;68833;53.160;17.920;2023-04-24T03:30:48;99685.70;;;13.17;74.35
79366;BME280;68833;53.160;17.920;2023-04-24T03:33:15;99692.86;;;13.20;74.19
79366;BME280;68833;53.160;17.920;2023-04-24T03:35:49;99690.90;;;13.20;74.35
79366;BME280;68833;53.160;17.920;2023-04-24T03:38:19;99695.33;;;13.20;74.40
79366;BME280;68833;53.160;17.920;2023-04-24T03:41:16;99689.20;;;13.19;74.51
79366;BME280;68833;53.160;17.920;2023-04-24T03:43:50;99691.20;;;13.17;74.64
79366;BME280;68833;53.160;17.920;2023-04-24T03:46:16;99692.49;;;13.15;74.76
79366;BME280;68833;53.160;17.920;2023-04-24T03:48:52;99685.83;;;13.14;74.69
79366;BME280;68833;53.160;17.920;2023-04-24T03:51:23;99680.91;;;13.13;74.83
79366;BME280;68833;53.160;17.920;2023-04-24T03:53:52;99675.48;;;13.12;75.01
79366;BME280;68833;53.160;17.920;2023-04-24T03:56:20;99676.66;;;13.09;75.04
79366;BME280;68833;53.160;17.920;2023-04-24T03:58:47;99674.85;;;13.11;74.97
79366;BME280;68833;53.160;17.920;2023-04-24T04:01:15;99675.86;;;13.12;75.02
79366;BME280;68833;53.160;17.920;2023-04-24T04:03:47;99673.89;;;13.12;74.96
79366;BME280;68833;53.160;17.920;2023-04-24T04:06:16;99669.63;;;13.13;75.16
79366;BME280;68833;53.160;17.920;2023-04-24T04:08:45;99668.21;;;13.13;75.22
79366;BME280;68833;53.160;17.920;2023-04-24T04:11:12;99666.27;;;13.14;75.20
79366;BME280;68833;53.160;17.920;2023-04-24T04:13:39;99664.34;;;13.13;75.30
79366;BME280;68833;53.160;17.920;2023-04-24T04:16:06;99667.08;;;13.16;75.35
79366;BME280;68833;53.160;17.920;2023-04-24T04:18:33;99670.25;;;13.16;75.52
79366;BME280;68833;53.160;17.920;2023-04-24T04:21:01;99667.80;;;13.15;75.79
79366;BME280;68833;53.160;17.920;2023-04-24T04:23:28;99662.98;;;13.17;75.74
79366;BME280;68833;53.160;17.920;2023-04-24T04:26:15;99661.52;;;13.19;75.56
79366;BME280;68833;53.160;17.920;2023-04-24T04:28:57;99650.18;;;13.20;75.90
79366;BME280;68833;53.160;17.920;2023-04-24T04:31:24;99646.27;;;13.21;75.56
79366;BME280;68833;53.160;17.920;2023-04-24T04:33:52;99647.12;;;13.22;75.67
79366;BME280;68833;53.160;17.920;2023-04-24T04:36:20;99647.93;;;13.23;75.70
79366;BME280;68833;53.160;17.920;2023-04-24T04:38:52;99648.75;;;13.25;75.59
79366;BME280;68833;53.160;17.920;2023-04-24T04:41:42;99652.29;;;13.25;75.90
79366;BME280;68833;53.160;17.920;2023-04-24T04:44:09;99652.46;;;13.25;75.57
79366;BME280;68833;53.160;17.920;2023-04-24T04:46:37;99650.52;;;13.25;75.76
79366;BME280;68833;53.160;17.920;2023-04-24T04:49:12;99644.75;;;13.28;75.70
79366;BME280;68833;53.160;17.920;2023-04-24T04:51:40;99646.86;;;13.29;76.10
79366;BME280;68833;53.160;17.920;2023-04-24T04:54:07;99647.75;;;13.28;75.77
79366;BME280;68833;53.160;17.920;2023-04-24T04:56:35;99644.20;;;13.29;75.99
79366;BME280;68833;53.160;17.920;2023-04-24T04:59:02;99643.00;;;13.28;75.88
79366;BME280;68833;53.160;17.920;2023-04-24T05:01:32;99637.75;;;13.27;76.02
79366;BME280;68833;53.160;17.920;2023-04-24T05:03:59;99637.02;;;13.28;76.08
79366;BME280;68833;53.160;17.920;2023-04-24T05:06:26;99635.52;;;13.30;76.10
79366;BME280;68833;53.160;17.920;2023-04-24T05:08:54;99634.24;;;13.31;76.32
79366;BME280;68833;53.160;17.920;2023-04-24T05:11:35;99624.85;;;13.32;76.24
79366;BME280;68833;53.160;17.920;2023-04-24T05:14:02;99624.80;;;13.34;76.30
79366;BME280;68833;53.160;17.920;2023-04-24T05:16:35;99622.98;;;13.37;76.20
79366;BME280;68833;53.160;17.920;2023-04-24T05:19:04;99622.94;;;13.38;76.28
79366;BME280;68833;53.160;17.920;2023-04-24T05:21:36;99623.08;;;13.39;76.65
79366;BME280;68833;53.160;17.920;2023-04-24T05:24:03;99621.48;;;13.39;76.28
79366;BME280;68833;53.160;17.920;2023-04-24T05:26:46;99620.92;;;13.39;76.49
79366;BME280;68833;53.160;17.920;2023-04-24T05:29:15;99617.46;;;13.42;76.77
79366;BME280;68833;53.160;17.920;2023-04-24T05:31:42;99615.02;;;13.46;76.90
79366;BME280;68833;53.160;17.920;2023-04-24T05:34:09;99614.02;;;13.49;76.72
79366;BME280;68833;53.160;17.920;2023-04-24T05:36:39;99617.70;;;13.55;76.92
79366;BME280;68833;53.160;17.920;2023-04-24T05:39:07;99618.88;;;13.61;77.22
79366;BME280;68833;53.160;17.920;2023-04-24T05:41:34;99618.49;;;13.71;77.19
79366;BME280;68833;53.160;17.920;2023-04-24T05:44:01;99611.51;;;13.78;77.17
79366;BME280;68833;53.160;17.920;2023-04-24T05:46:28;99618.55;;;13.78;77.35
79366;BME280;68833;53.160;17.920;2023-04-24T05:48:56;99633.13;;;13.76;77.68
79366;BME280;68833;53.160;17.920;2023-04-24T05:51:24;99632.11;;;13.70;77.99
79366;BME280;68833;53.160;17.920;2023-04-24T05:53:51;99628.26;;;13.69;77.76
79366;BME280;68833;53.160;17.920;2023-04-24T05:56:19;99626.27;;;13.70;77.64
79366;BME280;68833;53.160;17.920;2023-04-24T05:58:47;99619.50;;;13.72;77.76
79366;BME280;68833;53.160;17.920;2023-04-24T06:01:14;99618.95;;;13.73;77.62
79366;BME280;68833;53.160;17.920;2023-04-24T06:03:43;99623.25;;;13.75;77.49
79366;BME280;68833;53.160;17.920;2023-04-24T06:06:10;99624.76;;;13.78;77.16
79366;BME280;68833;53.160;17.920;2023-04-24T06:08:37;99630.66;;;13.80;77.04
79366;BME280;68833;53.160;17.920;2023-04-24T06:11:04;99626.17;;;13.82;77.28
79366;BME280;68833;53.160;17.920;2023-04-24T06:13:32;99626.14;;;13.87;77.47
79366;BME280;68833;53.160;17.920;2023-04-24T06:16:29;99624.70;;;13.92;77.25
79366;BME280;68833;53.160;17.920;2023-04-24T06:19:00;99616.67;;;13.98;77.44
79366;BME280;68833;53.160;17.920;2023-04-24T06:21:28;99607.47;;;14.04;77.14
79366;BME280;68833;53.160;17.920;2023-04-24T06:23:56;99601.02;;;14.06;77.14
79366;BME280;68833;53.160;17.920;2023-04-24T06:26:23;99600.90;;;14.09;77.30
79366;BME280;68833;53.160;17.920;2023-04-24T06:28:52;99598.64;;;14.16;77.29
79366;BME280;68833;53.160;17.920;2023-04-24T06:31:21;99600.91;;;14.30;77.41
79366;BME280;68833;53.160;17.920;2023-04-24T06:33:48;99599.46;;;14.35;77.32
79366;BME280;68833;53.160;17.920;2023-04-24T06:36:16;99597.17;;;14.39;77.20
79366;BME280;68833;53.160;17.920;2023-04-24T06:38:43;99594.36;;;14.43;76.82
79366;BME280;68833;53.160;17.920;2023-04-24T06:41:10;99591.52;;;14.43;76.82
79366;BME280;68833;53.160;17.920;2023-04-24T06:43:37;99586.23;;;14.43;76.71
79366;BME280;68833;53.160;17.920;2023-04-24T06:46:04;99588.77;;;14.42;77.02
79366;BME280;68833;53.160;17.920;2023-04-24T06:48:32;99587.21;;;14.41;76.58
79366;BME280;68833;53.160;17.920;2023-04-24T06:50:59;99587.42;;;14.40;76.57
79366;BME280;68833;53.160;17.920;2023-04-24T06:53:26;99590.21;;;14.41;76.53
79366;BME280;68833;53.160;17.920;2023-04-24T06:55:54;99591.23;;;14.42;76.53
79366;BME280;68833;53.160;17.920;2023-04-24T06:58:21;99590.08;;;14.44;75.99
79366;BME280;68833;53.160;17.920;2023-04-24T07:00:48;99592.41;;;14.47;75.86
79366;BME280;68833;53.160;17.920;2023-04-24T07:03:15;99587.66;;;14.51;75.78
79366;BME280;68833;53.160;17.920;2023-04-24T07:05:42;99588.92;;;14.55;75.78
79366;BME280;68833;53.160;17.920;2023-04-24T07:08:09;99588.08;;;14.58;75.91
79366;BME280;68833;53.160;17.920;2023-04-24T07:10:38;99588.40;;;14.63;75.72
79366;BME280;68833;53.160;17.920;2023-04-24T07:13:05;99584.85;;;14.68;75.45
79366;BME280;68833;53.160;17.920;2023-04-24T07:15:33;99586.85;;;14.71;75.13
79366;BME280;68833;53.160;17.920;2023-04-24T07:18:00;99588.33;;;14.73;75.07
79366;BME280;68833;53.160;17.920;2023-04-24T07:20:27;99585.80;;;14.75;75.11
79366;BME280;68833;53.160;17.920;2023-04-24T07:22:54;99579.52;;;14.76;75.00
79366;BME280;68833;53.160;17.920;2023-04-24T07:25:21;99578.38;;;14.79;74.73
79366;BME280;68833;53.160;17.920;2023-04-24T07:27:48;99574.87;;;14.82;74.55
79366;BME280;68833;53.160;17.920;2023-04-24T07:30:15;99577.50;;;14.82;73.76
79366;BME280;68833;53.160;17.920;2023-04-24T07:32:42;99581.17;;;14.83;73.23
79366;BME280;68833;53.160;17.920;2023-04-24T07:35:09;99579.61;;;14.82;72.55
79366;BME280;68833;53.160;17.920;2023-04-24T07:37:37;99581.30;;;14.84;72.94
79366;BME280;68833;53.160;17.920;2023-04-24T07:40:04;99575.21;;;14.86;72.80
79366;BME280;68833;53.160;17.920;2023-04-24T07:42:31;99578.52;;;14.87;71.97
79366;BME280;68833;53.160;17.920;2023-04-24T07:45:01;99578.93;;;14.90;71.75
79366;BME280;68833;53.160;17.920;2023-04-24T07:47:28;99578.39;;;14.94;71.20
79366;BME280;68833;53.160;17.920;2023-04-24T07:49:56;99574.58;;;15.00;70.61
79366;BME280;68833;53.160;17.920;2023-04-24T07:52:23;99572.01;;;15.07;70.34
79366;BME280;68833;53.160;17.920;2023-04-24T07:54:51;99566.31;;;15.11;69.93
79366;BME280;68833;53.160;17.920;2023-04-24T07:57:25;99569.88;;;15.18;69.95
79366;BME280;68833;53.160;17.920;2023-04-24T07:59:52;99571.98;;;15.23;69.89
79366;BME280;68833;53.160;17.920;2023-04-24T08:02:19;99575.44;;;15.28;69.45
79366;BME280;68833;53.160;17.920;2023-04-24T08:04:46;99569.17;;;15.33;68.50
79366;BME280;68833;53.160;17.920;2023-04-24T08:07:12;99571.07;;;15.38;68.35
79366;BME280;68833;53.160;17.920;2023-04-24T08:09:39;99572.84;;;15.42;68.72
79366;BME280;68833;53.160;17.920;2023-04-24T08:12:06;99575.36;;;15.48;67.83
79366;BME280;68833;53.160;17.920;2023-04-24T08:14:33;99575.04;;;15.55;67.38
79366;BME280;68833;53.160;17.920;2023-04-24T08:17:00;99574.95;;;15.61;66.90
79366;BME280;68833;53.160;17.920;2023-04-24T08:19:29;99576.50;;;15.69;66.84
79366;BME280;68833;53.160;17.920;2023-04-24T08:21:56;99568.89;;;15.77;66.40
79366;BME280;68833;53.160;17.920;2023-04-24T08:24:23;99570.52;;;15.84;65.92
79366;BME280;68833;53.160;17.920;2023-04-24T08:26:50;99571.61;;;15.90;65.34
79366;BME280;68833;53.160;17.920;2023-04-24T08:29:18;99564.96;;;15.96;64.70
79366;BME280;68833;53.160;17.920;2023-04-24T08:31:45;99564.02;;;16.00;65.18
79366;BME280;68833;53.160;17.920;2023-04-24T08:34:12;99562.02;;;16.06;65.11
79366;BME280;68833;53.160;17.920;2023-04-24T08:36:39;99564.30;;;16.09;65.02
79366;BME280;68833;53.160;17.920;2023-04-24T08:39:07;99564.71;;;16.12;63.73
79366;BME280;68833;53.160;17.920;2023-04-24T08:41:34;99563.19;;;16.14;63.29
79366;BME280;68833;53.160;17.920;2023-04-24T08:44:02;99560.89;;;16.17;63.23
79366;BME280;68833;53.160;17.920;2023-04-24T08:46:30;99556.91;;;16.19;62.83
79366;BME280;68833;53.160;17.920;2023-04-24T08:48:57;99555.86;;;16.22;62.16
79366;BME280;68833;53.160;17.920;2023-04-24T08:51:26;99552.05;;;16.24;61.89
79366;BME280;68833;53.160;17.920;2023-04-24T08:53:54;99555.46;;;16.30;60.87
79366;BME280;68833;53.160;17.920;2023-04-24T08:56:22;99552.46;;;16.33;61.18
79366;BME280;68833;53.160;17.920;2023-04-24T08:58:51;99553.39;;;16.36;60.68
79366;BME280;68833;53.160;17.920;2023-04-24T09:01:19;99548.42;;;16.40;61.02
79366;BME280;68833;53.160;17.920;2023-04-24T09:03:48;99548.80;;;16.43;60.57
79366;BME280;68833;53.160;17.920;2023-04-24T09:06:17;99556.05;;;16.50;60.66
79366;BME280;68833;53.160;17.920;2023-04-24T09:08:45;99555.11;;;16.54;59.37
79366;BME280;68833;53.160;17.920;2023-04-24T09:11:13;99556.42;;;16.60;59.02
79366;BME280;68833;53.160;17.920;2023-04-24T09:13:40;99557.96;;;16.64;59.80
79366;BME280;68833;53.160;17.920;2023-04-24T09:16:08;99562.09;;;16.67;58.99
79366;BME280;68833;53.160;17.920;2023-04-24T09:18:35;99558.39;;;16.70;59.50
79366;BME280;68833;53.160;17.920;2023-04-24T09:21:09;99564.95;;;16.73;59.61
79366;BME280;68833;53.160;17.920;2023-04-24T09:23:36;99561.20;;;16.77;59.37
79366;BME280;68833;53.160;17.920;2023-04-24T09:26:04;99559.72;;;16.82;58.81
79366;BME280;68833;53.160;17.920;2023-04-24T09:28:37;99560.86;;;16.83;58.37
79366;BME280;68833;53.160;17.920;2023-04-24T09:31:13;99559.55;;;16.85;58.95
79366;BME280;68833;53.160;17.920;2023-04-24T09:36:29;99555.94;;;16.86;58.09
79366;BME280;68833;53.160;17.920;2023-04-24T09:39:04;99558.55;;;16.87;58.80
79366;BME280;68833;53.160;17.920;2023-04-24T09:41:32;99555.08;;;16.89;58.76
79366;BME280;68833;53.160;17.920;2023-04-24T09:44:17;99554.39;;;16.92;58.34
79366;BME280;68833;53.160;17.920;2023-04-24T09:46:46;99550.91;;;16.95;58.01
79366;BME280;68833;53.160;17.920;2023-04-24T09:49:21;99544.82;;;16.96;57.19
79366;BME280;68833;53.160;17.920;2023-04-24T09:51:48;99542.05;;;16.98;56.94
79366;BME280;68833;53.160;17.920;2023-04-24T09:54:17;99542.90;;;16.98;56.30
79366;BME280;68833;53.160;17.920;2023-04-24T09:56:50;99541.90;;;17.00;56.85
79366;BME280;68833;53.160;17.920;2023-04-24T09:59:19;99544.27;;;17.02;56.93
79366;BME280;68833;53.160;17.920;2023-04-24T10:03:37;99541.77;;;17.06;55.99
79366;BME280;68833;53.160;17.920;2023-04-24T10:06:04;99540.55;;;17.06;56.29
79366;BME280;68833;53.160;17.920;2023-04-24T10:08:36;99536.41;;;17.07;55.64
79366;BME280;68833;53.160;17.920;2023-04-24T10:11:04;99532.39;;;17.09;55.73
79366;BME280;68833;53.160;17.920;2023-04-24T10:13:32;99526.47;;;17.13;55.61
79366;BME280;68833;53.160;17.920;2023-04-24T10:16:00;99528.98;;;17.19;56.59
79366;BME280;68833;53.160;17.920;2023-04-24T10:18:27;99527.45;;;17.28;55.64
79366;BME280;68833;53.160;17.920;2023-04-24T10:20:54;99524.16;;;17.39;55.91
79366;BME280;68833;53.160;17.920;2023-04-24T10:23:25;99514.62;;;17.48;55.54
79366;BME280;68833;53.160;17.920;2023-04-24T10:25:51;99509.56;;;17.56;55.37
79366;BME280;68833;53.160;17.920;2023-04-24T10:28:19;99515.55;;;17.60;55.91
79366;BME280;68833;53.160;17.920;2023-04-24T10:30:47;99520.98;;;17.64;56.09
79366;BME280;68833;53.160;17.920;2023-04-24T10:33:16;99517.47;;;17.66;55.45
79366;BME280;68833;53.160;17.920;2023-04-24T10:35:46;99516.59;;;17.69;54.95
79366;BME280;68833;53.160;17.920;2023-04-24T10:38:18;99522.05;;;17.71;54.93
79366;BME280;68833;53.160;17.920;2023-04-24T10:40:50;99524.55;;;17.77;55.04
79366;BME280;68833;53.160;17.920;2023-04-24T10:43:18;99525.25;;;17.83;55.12
79366;BME280;68833;53.160;17.920;2023-04-24T10:46:00;99523.04;;;17.94;55.17
79366;BME280;68833;53.160;17.920;2023-04-24T10:48:28;99527.90;;;18.08;54.91
79366;BME280;68833;53.160;17.920;2023-04-24T10:50:55;99523.29;;;18.17;54.53
79366;BME280;68833;53.160;17.920;2023-04-24T10:53:24;99518.27;;;18.30;54.96
79366;BME280;68833;53.160;17.920;2023-04-24T10:58:24;99524.91;;;18.67;54.21
79366;BME280;68833;53.160;17.920;2023-04-24T11:00:58;99521.50;;;18.73;54.18
79366;BME280;68833;53.160;17.920;2023-04-24T11:03:27;99520.30;;;18.84;54.49
79366;BME280;68833;53.160;17.920;2023-04-24T11:06:06;99525.73;;;18.95;53.80
79366;BME280;68833;53.160;17.920;2023-04-24T11:08:46;99526.45;;;19.03;53.61
79366;BME280;68833;53.160;17.920;2023-04-24T11:11:17;99526.08;;;19.15;53.35
79366;BME280;68833;53.160;17.920;2023-04-24T11:24:30;99518.85;;;19.47;52.99
79366;BME280;68833;53.160;17.920;2023-04-24T11:29:48;99525.48;;;19.47;53.16
79366;BME280;68833;53.160;17.920;2023-04-24T11:35:03;99526.31;;;19.45;53.04
79366;BME280;68833;53.160;17.920;2023-04-24T11:40:03;99530.37;;;19.40;52.85
79366;BME280;68833;53.160;17.920;2023-04-24T11:42:43;99529.22;;;19.41;53.05
79366;BME280;68833;53.160;17.920;2023-04-24T11:45:13;99532.15;;;19.43;53.21
79366;BME280;68833;53.160;17.920;2023-04-24T11:47:41;99533.29;;;19.42;53.15
79366;BME280;68833;53.160;17.920;2023-04-24T11:50:12;99535.39;;;19.42;53.73
79366;BME280;68833;53.160;17.920;2023-04-24T11:52:47;99532.79;;;19.44;53.49
79366;BME280;68833;53.160;17.920;2023-04-24T11:57:53;99528.36;;;19.49;52.87
79366;BME280;68833;53.160;17.920;2023-04-24T12:02:50;99526.83;;;19.53;53.87
79366;BME280;68833;53.160;17.920;2023-04-24T12:07:48;99526.68;;;19.58;53.57
79366;BME280;68833;53.160;17.920;2023-04-24T12:10:20;99521.48;;;19.61;53.88
79366;BME280;68833;53.160;17.920;2023-04-24T12:12:48;99521.21;;;19.65;53.88
79366;BME280;68833;53.160;17.920;2023-04-24T12:15:18;99522.91;;;19.64;52.68
79366;BME280;68833;53.160;17.920;2023-04-24T12:17:46;99521.93;;;19.68;53.33
79366;BME280;68833;53.160;17.920;2023-04-24T12:20:14;99515.31;;;19.74;52.96
79366;BME280;68833;53.160;17.920;2023-04-24T12:22:55;99513.86;;;19.71;52.85
79366;BME280;68833;53.160;17.920;2023-04-24T12:25:26;99518.27;;;19.67;52.57
79366;BME280;68833;53.160;17.920;2023-04-24T12:27:55;99513.72;;;19.58;52.38
79366;BME280;68833;53.160;17.920;2023-04-24T12:30:46;99516.95;;;19.49;52.27
79366;BME280;68833;53.160;17.920;2023-04-24T12:33:21;99512.35;;;19.37;52.85
79366;BME280;68833;53.160;17.920;2023-04-24T12:35:51;99509.11;;;19.30;53.28
79366;BME280;68833;53.160;17.920;2023-04-24T12:38:23;99508.44;;;19.24;53.36
79366;BME280;68833;53.160;17.920;2023-04-24T12:41:02;99509.58;;;19.19;53.42
79366;BME280;68833;53.160;17.920;2023-04-24T12:43:30;99507.93;;;19.15;53.33
79366;BME280;68833;53.160;17.920;2023-04-24T12:45:58;99506.94;;;19.11;53.44
79366;BME280;68833;53.160;17.920;2023-04-24T12:48:29;99502.39;;;19.07;53.76
79366;BME280;68833;53.160;17.920;2023-04-24T12:50:58;99500.20;;;19.01;53.14
79366;BME280;68833;53.160;17.920;2023-04-24T12:53:28;99498.36;;;18.97;53.88
79366;BME280;68833;53.160;17.920;2023-04-24T12:55:58;99497.05;;;18.98;54.26
79366;BME280;68833;53.160;17.920;2023-04-24T12:58:25;99495.21;;;19.02;54.21
79366;BME280;68833;53.160;17.920;2023-04-24T13:00:52;99495.94;;;19.04;54.39
79366;BME280;68833;53.160;17.920;2023-04-24T13:03:19;99492.55;;;19.04;54.21
79366;BME280;68833;53.160;17.920;2023-04-24T13:05:49;99491.81;;;19.08;54.78
79366;BME280;68833;53.160;17.920;2023-04-24T13:08:16;99488.20;;;19.14;54.85
79366;BME280;68833;53.160;17.920;2023-04-24T13:10:43;99486.80;;;19.22;54.77
79366;BME280;68833;53.160;17.920;2023-04-24T13:13:10;99485.39;;;19.28;55.27
79366;BME280;68833;53.160;17.920;2023-04-24T13:15:37;99485.84;;;19.34;55.51
79366;BME280;68833;53.160;17.920;2023-04-24T13:18:04;99485.36;;;19.42;55.45
79366;BME280;68833;53.160;17.920;2023-04-24T13:20:34;99484.39;;;19.48;55.18
79366;BME280;68833;53.160;17.920;2023-04-24T13:23:02;99481.27;;;19.52;55.28
79366;BME280;68833;53.160;17.920;2023-04-24T13:25:34;99482.52;;;19.55;55.18
79366;BME280;68833;53.160;17.920;2023-04-24T13:28:01;99487.27;;;19.56;54.69
79366;BME280;68833;53.160;17.920;2023-04-24T13:30:28;99487.41;;;19.54;54.26
79366;BME280;68833;53.160;17.920;2023-04-24T13:32:55;99476.41;;;19.53;54.16
79366;BME280;68833;53.160;17.920;2023-04-24T13:35:22;99479.14;;;19.55;54.24
79366;BME280;68833;53.160;17.920;2023-04-24T13:37:49;99476.55;;;19.57;53.89